Bugt, China
Current Conditions -  °F | °C
As of 2:00 PM on Monday 26 Jan 2015 (Local Time) from ZYTX Reporting Station
Light Snow Light Snow  
Wind Chill: -13°   Ceiling: 3000
Heat Index: -7°   Visibility: 1.2mi
Dew Point: -8°   Wind: 9mph
Humidity: 93%   Direction: 320°NW
Pressure: 30.39"   Gusts: NA
Location:  42.33°N, 120.7°E
Report Text: ZYTX 260600Z 32004MPS 280V010 2000 R06/1100V1900D -SNBROVC030M07/M08 Q1029 BECMG TL0730 3500
Loading
Personal Weather Stations






























Interactive Weather Map New forecast layout! Learn more

10-Day Weather Forecast

Advertisements
Track Severe Weather on mobile